createdAt,value
2023-03-12T00:00:53.681Z,78.5
2023-03-12T00:02:23.077Z,78.5
2023-03-12T00:03:51.368Z,78.5
2023-03-12T00:05:20.236Z,78.5
2023-03-12T00:06:48.958Z,78.5
2023-03-12T00:08:17.654Z,78.4
2023-03-12T00:09:45.590Z,78.4
2023-03-12T00:11:14.379Z,78.4
2023-03-12T00:12:42.701Z,78.5
2023-03-12T00:14:10.855Z,78.4
2023-03-12T00:15:40.059Z,78.4
2023-03-12T00:17:08.321Z,78.3
2023-03-12T00:18:37.019Z,78.4
2023-03-12T00:20:06.110Z,78.3
2023-03-12T00:21:35.101Z,78.3
2023-03-12T00:23:03.952Z,78.4
2023-03-12T00:24:32.753Z,78.3
2023-03-12T00:26:01.231Z,78.4
2023-03-12T00:27:29.628Z,78.4
2023-03-12T00:28:58.188Z,78.3
2023-03-12T00:30:27.224Z,78.4
2023-03-12T00:31:56.617Z,78.3
2023-03-12T00:33:24.429Z,78.3
2023-03-12T00:34:52.850Z,78.3
2023-03-12T00:36:21.176Z,78.2
2023-03-12T00:37:50.269Z,78.2
2023-03-12T00:39:18.955Z,78.2
2023-03-12T00:40:47.293Z,78.3
2023-03-12T00:42:16.315Z,78.3
2023-03-12T00:43:44.902Z,78.3
2023-03-12T00:45:13.780Z,78.2
2023-03-12T00:46:42.789Z,78.2
2023-03-12T00:48:11.177Z,78.2
2023-03-12T00:49:39.377Z,78.2
2023-03-12T00:51:08.217Z,78.2
2023-03-12T00:52:36.457Z,78.2
2023-03-12T00:54:07.356Z,78.2
2023-03-12T00:55:37.077Z,78.2
2023-03-12T00:57:05.432Z,78.2
2023-03-12T00:58:34.134Z,78.2
2023-03-12T01:00:02.862Z,78.2
2023-03-12T01:01:31.863Z,78.2
2023-03-12T01:02:59.846Z,78.3
2023-03-12T01:05:58.664Z,78.3
2023-03-12T01:07:17.448Z,78.2
2023-03-12T01:08:45.948Z,78.2
2023-03-12T01:10:15.208Z,78.2
2023-03-12T01:11:44.612Z,78.2
2023-03-12T01:13:12.112Z,78.2
2023-03-12T01:14:40.373Z,78.1
2023-03-12T01:16:08.924Z,78.1
2023-03-12T01:17:37.575Z,78.1
2023-03-12T01:19:06.111Z,78.1
2023-03-12T01:20:34.730Z,78.1
2023-03-12T01:22:03.970Z,78.1
2023-03-12T01:23:32.370Z,78.1
2023-03-12T01:25:00.959Z,78.1
2023-03-12T01:26:29.529Z,78.1
2023-03-12T01:27:58.692Z,78.1
2023-03-12T01:29:27.291Z,78.1
2023-03-12T01:30:56.032Z,78.1
2023-03-12T01:32:24.666Z,78.2
2023-03-12T01:33:53.246Z,78.1
2023-03-12T01:35:22.195Z,78.1
2023-03-12T01:36:50.735Z,78.1
2023-03-12T01:38:18.920Z,78.1
2023-03-12T01:39:47.240Z,78.2
2023-03-12T01:41:15.448Z,78.2
2023-03-12T01:42:44.308Z,78.2
2023-03-12T01:44:12.006Z,78.2
2023-03-12T01:45:40.563Z,78.2
2023-03-12T01:47:08.969Z,78.1
2023-03-12T01:48:37.775Z,78.1
2023-03-12T01:50:06.456Z,78.2
2023-03-12T01:51:35.143Z,78.2
2023-03-12T01:53:04.122Z,78.2
2023-03-12T01:54:32.609Z,78.1
2023-03-12T01:56:01.325Z,78.2
2023-03-12T01:57:29.302Z,78.1
2023-03-12T01:58:57.726Z,78.1
2023-03-12T02:00:26.154Z,78.1
2023-03-12T02:01:54.293Z,78.1
2023-03-12T02:03:22.653Z,78.1
2023-03-12T02:04:51.240Z,78.1
2023-03-12T02:06:20.824Z,78.1
2023-03-12T02:07:50.000Z,78.1
2023-03-12T02:09:17.719Z,78.1
2023-03-12T02:10:46.496Z,78.1
2023-03-12T02:12:15.345Z,78.1
2023-03-12T02:13:43.982Z,78
2023-03-12T02:15:12.301Z,78
2023-03-12T02:16:41.015Z,78.1
2023-03-12T02:18:09.400Z,78.1
2023-03-12T02:19:37.961Z,78.1
2023-03-12T02:21:06.625Z,78.1
2023-03-12T02:22:34.742Z,78
2023-03-12T02:24:03.443Z,78
2023-03-12T02:25:31.926Z,78
2023-03-12T02:27:00.745Z,78
2023-03-12T02:28:28.955Z,78.1
2023-03-12T02:29:57.145Z,78
2023-03-12T02:31:25.371Z,78
2023-03-12T02:32:54.395Z,78
2023-03-12T02:34:22.867Z,78
2023-03-12T02:35:51.566Z,78
2023-03-12T02:37:19.899Z,78.1
2023-03-12T02:38:49.178Z,78.1
2023-03-12T02:40:17.578Z,78.1
2023-03-12T02:41:46.118Z,78
2023-03-12T02:43:15.118Z,78
2023-03-12T02:44:43.627Z,78
2023-03-12T02:46:12.354Z,78
2023-03-12T02:47:40.088Z,77.9
2023-03-12T02:49:08.536Z,77.9
2023-03-12T02:50:36.949Z,78
2023-03-12T02:52:05.026Z,78
2023-03-12T02:53:33.677Z,78
2023-03-12T02:55:02.470Z,77.9
2023-03-12T02:56:30.979Z,77.9
2023-03-12T02:57:59.987Z,78
2023-03-12T02:59:28.468Z,78
2023-03-12T03:00:56.441Z,78
2023-03-12T03:02:24.450Z,78
2023-03-12T03:03:53.409Z,78
2023-03-12T03:05:22.202Z,78
2023-03-12T03:06:49.995Z,78.1
2023-03-12T03:08:18.524Z,78
2023-03-12T03:09:47.848Z,78
2023-03-12T03:11:16.291Z,78
2023-03-12T03:12:44.802Z,78
2023-03-12T03:14:13.193Z,78
2023-03-12T03:15:41.908Z,77.9
2023-03-12T03:17:10.126Z,78
2023-03-12T03:18:39.213Z,78
2023-03-12T03:20:07.404Z,78
2023-03-12T03:21:35.930Z,78
2023-03-12T03:23:04.425Z,78
2023-03-12T03:24:32.548Z,78
2023-03-12T03:26:01.048Z,77.9
2023-03-12T03:27:29.710Z,77.9
2023-03-12T03:28:58.309Z,77.9
2023-03-12T03:30:27.050Z,77.9
2023-03-12T03:31:55.891Z,77.9
2023-03-12T03:33:23.628Z,77.9
2023-03-12T03:34:51.847Z,77.8
2023-03-12T03:36:20.406Z,77.9
2023-03-12T03:37:48.972Z,77.9
2023-03-12T03:39:17.173Z,77.9
2023-03-12T03:40:45.644Z,77.9
2023-03-12T03:42:14.713Z,77.9
2023-03-12T03:43:43.800Z,77.8
2023-03-12T03:45:12.335Z,77.9
2023-03-12T03:46:41.383Z,77.9
2023-03-12T03:48:10.114Z,77.8
2023-03-12T03:49:38.536Z,77.9
2023-03-12T03:51:07.455Z,77.9
2023-03-12T03:52:36.006Z,77.9
2023-03-12T03:54:04.876Z,77.8
2023-03-12T03:55:33.348Z,77.8
2023-03-12T03:57:02.328Z,77.8
2023-03-12T03:58:30.718Z,77.8
2023-03-12T04:00:03.739Z,77.8
2023-03-12T04:01:27.428Z,77.8
2023-03-12T04:02:57.520Z,77.8
2023-03-12T04:04:24.429Z,77.8
2023-03-12T04:05:53.119Z,77.8
2023-03-12T04:07:20.958Z,77.7
2023-03-12T04:08:49.677Z,77.7
2023-03-12T04:10:18.782Z,77.6
2023-03-12T04:11:47.499Z,77.7
2023-03-12T04:13:15.968Z,77.7
2023-03-12T04:14:45.053Z,77.7
2023-03-12T04:16:13.732Z,77.7
2023-03-12T04:17:42.329Z,77.7
2023-03-12T04:19:11.006Z,77.7
2023-03-12T04:20:39.747Z,77.7
2023-03-12T04:22:08.314Z,77.7
2023-03-12T04:23:36.413Z,77.7
2023-03-12T04:25:04.724Z,77.7
2023-03-12T04:26:33.143Z,77.7
2023-03-12T04:28:01.993Z,77.7
2023-03-12T04:29:29.971Z,77.6
2023-03-12T04:30:39.564Z,77.6
2023-03-12T04:32:08.587Z,77.6
2023-03-12T04:33:37.142Z,77.6
2023-03-12T04:35:05.318Z,77.6
2023-03-12T04:36:34.013Z,77.6
2023-03-12T04:38:02.515Z,77.6
2023-03-12T04:39:31.498Z,77.6
2023-03-12T04:40:59.656Z,77.6
2023-03-12T04:42:28.197Z,77.6
2023-03-12T04:43:56.505Z,77.7
2023-03-12T04:45:25.197Z,77.6
2023-03-12T04:46:53.271Z,77.6
2023-03-12T04:48:21.658Z,77.6
2023-03-12T04:49:50.179Z,77.6
2023-03-12T04:51:19.159Z,77.6
2023-03-12T04:52:48.230Z,77.6
2023-03-12T04:54:16.821Z,77.6
2023-03-12T04:55:45.201Z,77.6
2023-03-12T04:57:14.179Z,77.6
2023-03-12T04:58:42.942Z,77.6
2023-03-12T05:00:11.251Z,77.7
2023-03-12T05:01:40.281Z,77.7
2023-03-12T05:03:09.391Z,77.6
2023-03-12T05:04:37.715Z,77.6
2023-03-12T05:06:05.446Z,77.6
2023-03-12T05:07:34.098Z,77.6
2023-03-12T05:09:02.619Z,77.7
2023-03-12T05:10:32.094Z,77.7
2023-03-12T05:11:59.919Z,77.7
2023-03-12T05:13:28.409Z,77.7
2023-03-12T05:14:56.827Z,77.6
2023-03-12T05:16:25.445Z,77.6
2023-03-12T05:17:55.318Z,77.6
2023-03-12T05:19:22.822Z,77.6
2023-03-12T05:20:51.474Z,77.6
2023-03-12T05:22:20.255Z,77.6
2023-03-12T05:23:48.982Z,77.6
2023-03-12T05:25:16.713Z,77.6
2023-03-12T05:26:45.214Z,77.7
2023-03-12T05:28:13.551Z,77.7
2023-03-12T05:29:42.492Z,77.7
2023-03-12T05:31:11.717Z,77.7
2023-03-12T05:32:40.116Z,77.7
2023-03-12T05:34:08.812Z,77.6
2023-03-12T05:35:37.879Z,77.6
2023-03-12T05:37:06.297Z,77.6
2023-03-12T05:38:34.994Z,77.6
2023-03-12T05:40:03.732Z,77.6
2023-03-12T05:41:32.438Z,77.6
2023-03-12T05:43:01.449Z,77.6
2023-03-12T05:44:30.112Z,77.6
2023-03-12T05:45:58.655Z,77.5
2023-03-12T05:47:27.203Z,77.6
2023-03-12T05:48:55.993Z,77.6
2023-03-12T05:50:23.884Z,77.6
2023-03-12T05:51:52.272Z,77.5
2023-03-12T05:53:20.474Z,77.6
2023-03-12T05:54:49.023Z,77.6
2023-03-12T05:56:17.429Z,77.6
2023-03-12T05:57:45.940Z,77.6
2023-03-12T05:59:14.740Z,77.6
2023-03-12T06:00:43.867Z,77.6
2023-03-12T06:02:12.861Z,77.5
2023-03-12T06:03:41.398Z,77.6
2023-03-12T06:05:09.502Z,77.6
2023-03-12T06:06:38.045Z,77.6
2023-03-12T06:08:07.042Z,77.6
2023-03-12T06:09:34.820Z,77.6
2023-03-12T06:11:03.162Z,77.6
2023-03-12T06:12:31.638Z,77.6
2023-03-12T06:14:00.313Z,77.5
2023-03-12T06:15:28.999Z,77.5
2023-03-12T06:16:57.631Z,77.5
2023-03-12T06:18:25.773Z,77.5
2023-03-12T06:19:54.219Z,77.5
2023-03-12T06:21:22.982Z,77.5
2023-03-12T06:22:51.020Z,77.5
2023-03-12T06:24:19.521Z,77.5
2023-03-12T06:25:47.941Z,77.5
2023-03-12T06:27:16.302Z,77.5
2023-03-12T06:28:45.182Z,77.5
2023-03-12T06:30:13.581Z,77.5
2023-03-12T06:31:42.447Z,77.5
2023-03-12T06:33:10.470Z,77.5
2023-03-12T06:34:40.541Z,77.5
2023-03-12T06:36:09.308Z,77.5
2023-03-12T06:37:38.039Z,77.5
2023-03-12T06:39:07.018Z,77.5
2023-03-12T06:40:36.249Z,77.5
2023-03-12T06:42:04.539Z,77.5
2023-03-12T06:43:33.098Z,77.5
2023-03-12T06:45:01.737Z,77.5
2023-03-12T06:46:31.081Z,77.5
2023-03-12T06:47:58.406Z,77.5
2023-03-12T06:49:26.675Z,77.5
2023-03-12T06:50:55.111Z,77.5
2023-03-12T06:52:23.637Z,77.5
2023-03-12T06:53:51.971Z,77.5
2023-03-12T06:55:20.522Z,77.5
2023-03-12T06:56:49.010Z,77.5
2023-03-12T06:58:17.432Z,77.4
2023-03-12T06:59:51.003Z,77.4
2023-03-12T07:01:15.088Z,77.4
2023-03-12T07:02:43.546Z,77.4
2023-03-12T07:04:12.190Z,77.4
2023-03-12T07:05:41.947Z,77.4
2023-03-12T07:07:10.427Z,77.4
2023-03-12T07:08:38.912Z,77.4
2023-03-12T07:10:07.194Z,77.4
2023-03-12T07:11:35.365Z,77.4
2023-03-12T07:13:03.810Z,77.5
2023-03-12T07:14:32.509Z,77.5
2023-03-12T07:16:02.120Z,77.6
2023-03-12T07:17:30.543Z,77.5
2023-03-12T07:18:59.453Z,77.5
2023-03-12T07:20:28.212Z,77.5
2023-03-12T07:21:56.994Z,77.4
2023-03-12T07:23:26.075Z,77.4
2023-03-12T07:24:54.988Z,77.4
2023-03-12T07:26:23.036Z,77.4
2023-03-12T07:27:51.620Z,77.4
2023-03-12T07:29:20.360Z,77.4
2023-03-12T07:30:49.327Z,77.4
2023-03-12T07:32:17.506Z,77.4
2023-03-12T07:33:46.337Z,77.4
2023-03-12T07:35:14.588Z,77.4
2023-03-12T07:36:44.221Z,77.4
2023-03-12T07:38:11.737Z,77.4
2023-03-12T07:39:40.382Z,77.4
2023-03-12T07:41:19.562Z,77.4
2023-03-12T07:42:48.014Z,77.4
2023-03-12T07:44:16.276Z,77.4
2023-03-12T07:45:44.704Z,77.5
2023-03-12T07:47:25.047Z,77.5
2023-03-12T07:48:45.033Z,77.5
2023-03-12T07:50:10.468Z,77.5
2023-03-12T07:51:39.127Z,77.5
2023-03-12T07:53:07.935Z,77.5
2023-03-12T07:54:35.925Z,77.5
2023-03-12T07:56:04.707Z,77.5
2023-03-12T07:57:33.374Z,77.5
2023-03-12T07:59:01.519Z,77.5
2023-03-12T08:00:30.044Z,77.6
2023-03-12T08:01:58.012Z,77.6
2023-03-12T08:03:27.072Z,77.6
2023-03-12T08:04:55.269Z,77.6
2023-03-12T08:06:22.698Z,77.6
2023-03-12T08:07:51.677Z,77.6
2023-03-12T08:09:20.778Z,77.6
2023-03-12T08:10:50.437Z,77.7
2023-03-12T08:12:17.818Z,77.6
2023-03-12T08:13:47.064Z,77.6
2023-03-12T08:15:14.677Z,77.6
2023-03-12T08:16:44.837Z,77.6
2023-03-12T08:18:12.424Z,77.6
2023-03-12T08:19:40.492Z,77.6
2023-03-12T08:21:08.829Z,77.6
2023-03-12T08:22:37.454Z,77.6
2023-03-12T08:24:06.350Z,77.6
2023-03-12T08:25:34.441Z,77.6
2023-03-12T08:27:02.817Z,77.7
2023-03-12T08:28:31.707Z,77.6
2023-03-12T08:29:59.878Z,77.6
2023-03-12T08:31:29.100Z,77.6
2023-03-12T08:32:57.329Z,77.7
2023-03-12T08:34:25.317Z,77.7
2023-03-12T08:35:54.183Z,77.8
2023-03-12T08:37:22.873Z,77.8
2023-03-12T08:38:50.827Z,77.8
2023-03-12T08:40:19.316Z,77.8
2023-03-12T08:41:48.642Z,77.8
2023-03-12T08:43:17.326Z,77.8
2023-03-12T08:44:45.827Z,77.9
2023-03-12T08:46:14.663Z,77.9
2023-03-12T08:47:42.793Z,77.9
2023-03-12T08:49:11.270Z,77.9
2023-03-12T08:50:40.289Z,77.9
2023-03-12T08:52:08.292Z,78
2023-03-12T08:53:36.458Z,78
2023-03-12T08:55:05.191Z,78.1
2023-03-12T08:56:34.870Z,78.1
2023-03-12T08:58:03.130Z,78.2
2023-03-12T08:59:31.572Z,78.2
2023-03-12T09:01:00.635Z,78.2
2023-03-12T09:02:29.818Z,78.2
2023-03-12T09:03:58.489Z,78.2
2023-03-12T09:05:26.673Z,78.2
2023-03-12T09:06:54.851Z,78.3
2023-03-12T09:08:23.269Z,78.3
2023-03-12T09:09:52.130Z,78.3
2023-03-12T09:11:19.620Z,78.3
2023-03-12T09:12:48.168Z,78.4
2023-03-12T09:15:05.460Z,78.4
2023-03-12T09:16:15.275Z,78.5
2023-03-12T09:17:43.703Z,78.6
2023-03-12T09:19:12.532Z,78.6
2023-03-12T09:20:40.652Z,78.6
2023-03-12T09:22:09.085Z,78.6
2023-03-12T09:23:37.525Z,78.6
2023-03-12T09:25:06.569Z,78.6
2023-03-12T09:26:35.358Z,78.6
2023-03-12T09:28:03.605Z,78.7
2023-03-12T09:29:31.970Z,78.6
2023-03-12T09:31:00.916Z,78.6
2023-03-12T09:32:29.861Z,78.6
2023-03-12T09:33:57.766Z,78.6
2023-03-12T09:35:26.378Z,78.6
2023-03-12T09:36:54.706Z,78.6
2023-03-12T09:38:23.837Z,78.6
2023-03-12T09:39:52.075Z,78.6
2023-03-12T09:41:20.734Z,78.6
2023-03-12T09:42:49.621Z,78.6
2023-03-12T09:44:17.894Z,78.6
2023-03-12T09:45:47.112Z,78.6
2023-03-12T09:47:14.853Z,78.6
2023-03-12T09:48:47.136Z,78.6
2023-03-12T09:50:12.137Z,78.5
2023-03-12T09:51:41.035Z,78.6
2023-03-12T09:53:09.021Z,78.6
2023-03-12T09:54:37.817Z,78.6
2023-03-12T09:56:06.138Z,78.5
2023-03-12T09:57:34.486Z,78.6
2023-03-12T09:59:03.290Z,78.6
2023-03-12T10:00:31.492Z,78.5
2023-03-12T10:02:00.232Z,78.5
2023-03-12T10:03:28.918Z,78.5
2023-03-12T10:05:00.845Z,78.4
2023-03-12T10:06:26.056Z,78.5
2023-03-12T10:07:54.201Z,78.5
2023-03-12T10:09:22.214Z,78.5
2023-03-12T10:10:51.134Z,78.6
2023-03-12T10:12:19.969Z,78.6
2023-03-12T10:13:47.860Z,78.6
2023-03-12T10:15:16.842Z,78.6
2023-03-12T10:16:45.967Z,78.6
2023-03-12T10:18:15.138Z,78.6
2023-03-12T10:19:42.704Z,78.6
2023-03-12T10:21:11.892Z,78.6
2023-03-12T10:22:40.701Z,78.7
2023-03-12T10:24:09.511Z,78.7
2023-03-12T10:25:37.520Z,78.7
2023-03-12T10:27:06.036Z,78.7
2023-03-12T10:28:34.981Z,78.7
2023-03-12T10:30:03.433Z,78.7
2023-03-12T10:31:32.151Z,78.7
2023-03-12T10:33:00.426Z,78.7
2023-03-12T10:34:29.237Z,78.7
2023-03-12T10:35:58.260Z,78.7
2023-03-12T10:37:26.883Z,78.7
2023-03-12T10:38:54.860Z,78.7
2023-03-12T10:40:23.865Z,78.8
2023-03-12T10:41:52.364Z,78.8
2023-03-12T10:43:20.971Z,78.8
2023-03-12T10:44:49.305Z,78.9
2023-03-12T10:46:17.561Z,78.9
2023-03-12T10:47:46.047Z,78.9
2023-03-12T10:49:14.187Z,78.9
2023-03-12T10:50:43.799Z,78.9
2023-03-12T10:52:12.058Z,78.9
2023-03-12T10:53:40.703Z,78.9
2023-03-12T10:55:09.437Z,79
2023-03-12T10:56:37.832Z,79
2023-03-12T10:58:06.983Z,79
2023-03-12T10:59:35.896Z,79
2023-03-12T11:01:04.373Z,79
2023-03-12T11:02:32.578Z,79
2023-03-12T11:04:01.741Z,79.1
2023-03-12T11:05:29.908Z,79
2023-03-12T11:06:59.477Z,79.1
2023-03-12T11:08:28.231Z,79.1
2023-03-12T11:09:57.061Z,79.2
2023-03-12T11:11:24.979Z,79.2
2023-03-12T11:12:53.852Z,79.2
2023-03-12T11:14:22.125Z,79.2
2023-03-12T11:15:50.480Z,79.1
2023-03-12T11:17:19.285Z,79.1
2023-03-12T11:18:47.438Z,79.1
2023-03-12T11:20:16.185Z,79.1
2023-03-12T11:21:45.436Z,79.1
2023-03-12T11:23:14.168Z,79.2
2023-03-12T11:24:42.453Z,79.2
2023-03-12T11:26:11.014Z,79.2
2023-03-12T11:27:39.675Z,79.2
2023-03-12T11:29:08.726Z,79.2
2023-03-12T11:30:37.038Z,79.2
2023-03-12T11:32:05.960Z,79.2
2023-03-12T11:33:34.693Z,79.2
2023-03-12T11:35:04.045Z,79.2
2023-03-12T11:36:32.229Z,79.2
2023-03-12T11:38:00.822Z,79.2
2023-03-12T11:39:29.145Z,79.2
2023-03-12T11:40:58.000Z,79.2
2023-03-12T11:42:26.824Z,79.2
2023-03-12T11:43:55.020Z,79.2
2023-03-12T11:45:23.617Z,79.2
2023-03-12T11:46:52.094Z,79.3
2023-03-12T11:48:21.289Z,79.3
2023-03-12T11:49:50.333Z,79.3
2023-03-12T11:51:18.057Z,79.3
2023-03-12T11:52:46.424Z,79.3
2023-03-12T11:54:15.765Z,79.3
2023-03-12T11:55:44.687Z,79.3
2023-03-12T11:57:12.694Z,79.4
2023-03-12T11:58:41.186Z,79.4
2023-03-12T12:00:09.777Z,79.4
2023-03-12T12:01:38.796Z,79.4
2023-03-12T12:03:06.688Z,79.4
2023-03-12T12:04:35.020Z,79.4
2023-03-12T12:06:03.779Z,79.4
2023-03-12T12:07:33.571Z,79.4
2023-03-12T12:09:01.696Z,79.4
2023-03-12T12:10:30.963Z,79.5
2023-03-12T12:11:59.278Z,79.5
2023-03-12T12:13:28.982Z,79.5
2023-03-12T12:14:57.175Z,79.5
2023-03-12T12:16:25.900Z,79.5
2023-03-12T12:17:54.154Z,79.5
2023-03-12T12:19:22.589Z,79.5
2023-03-12T12:20:53.671Z,79.5
2023-03-12T12:22:19.680Z,79.4
2023-03-12T12:23:48.492Z,79.4
2023-03-12T12:25:16.945Z,79.4
2023-03-12T12:26:45.204Z,79.4
2023-03-12T12:28:14.205Z,79.4
2023-03-12T12:29:42.744Z,79.4
2023-03-12T12:31:11.860Z,79.5
2023-03-12T12:32:41.551Z,79.5
2023-03-12T12:34:09.764Z,79.5
2023-03-12T12:35:39.153Z,79.5
2023-03-12T12:37:07.366Z,79.6
2023-03-12T12:38:35.787Z,79.6
2023-03-12T12:40:04.904Z,79.6
2023-03-12T12:41:33.093Z,79.6
2023-03-12T12:43:01.294Z,79.6
2023-03-12T12:44:29.521Z,79.6
2023-03-12T12:45:59.067Z,79.6
2023-03-12T12:47:27.815Z,79.6
2023-03-12T12:48:56.083Z,79.6
2023-03-12T12:50:25.040Z,79.6
2023-03-12T12:51:53.848Z,79.5
2023-03-12T12:53:22.784Z,79.6
2023-03-12T12:54:51.319Z,79.5
2023-03-12T12:56:20.360Z,79.6
2023-03-12T12:57:49.838Z,79.6
2023-03-12T12:59:18.198Z,79.5
2023-03-12T13:00:46.910Z,79.6
2023-03-12T13:02:15.983Z,79.6
2023-03-12T13:03:45.320Z,79.7
2023-03-12T13:05:13.532Z,79.7
2023-03-12T13:06:41.736Z,79.7
2023-03-12T13:08:10.562Z,79.7
2023-03-12T13:09:39.638Z,79.7
2023-03-12T13:11:21.147Z,79.7
2023-03-12T13:12:37.681Z,79.7
2023-03-12T13:14:06.474Z,79.7
2023-03-12T13:15:34.823Z,79.7
2023-03-12T13:17:04.109Z,79.7
2023-03-12T13:18:32.047Z,79.8
2023-03-12T13:20:02.590Z,79.7
2023-03-12T13:21:29.015Z,79.7
2023-03-12T13:22:57.240Z,79.7
2023-03-12T13:24:26.059Z,79.7
2023-03-12T13:25:54.101Z,79.7
2023-03-12T13:27:22.949Z,79.7
2023-03-12T13:29:11.692Z,79.7
2023-03-12T13:30:20.580Z,79.7
2023-03-12T13:31:48.885Z,79.8
2023-03-12T13:33:17.392Z,79.8
2023-03-12T13:34:46.839Z,79.8
2023-03-12T13:36:16.021Z,79.8
2023-03-12T13:37:44.029Z,79.9
2023-03-12T13:39:12.780Z,79.9
2023-03-12T13:40:41.645Z,79.9
2023-03-12T13:42:10.685Z,79.8
2023-03-12T13:43:39.241Z,79.9
2023-03-12T13:45:07.846Z,79.9
2023-03-12T13:46:36.967Z,79.8
2023-03-12T13:48:07.138Z,79.8
2023-03-12T13:49:34.587Z,79.8
2023-03-12T13:51:02.872Z,79.8
2023-03-12T13:52:31.729Z,79.8
2023-03-12T13:54:00.501Z,79.8
2023-03-12T13:55:29.625Z,79.8
2023-03-12T13:56:57.918Z,79.7
2023-03-12T13:58:26.284Z,79.8
2023-03-12T13:59:54.926Z,79.7
2023-03-12T14:01:24.023Z,79.8
2023-03-12T14:02:51.915Z,79.7
2023-03-12T14:04:20.734Z,79.7
2023-03-12T14:05:49.213Z,79.8
2023-03-12T14:07:18.841Z,79.8
2023-03-12T14:08:47.101Z,79.7
2023-03-12T14:10:16.128Z,79.7
2023-03-12T14:11:44.705Z,79.7
2023-03-12T14:13:14.541Z,79.6
2023-03-12T14:14:43.349Z,79.7
2023-03-12T14:16:12.587Z,79.7
2023-03-12T14:18:52.901Z,79.8
2023-03-12T14:20:22.112Z,79.8
2023-03-12T14:21:51.492Z,79.8
2023-03-12T14:23:19.425Z,79.7
2023-03-12T14:24:47.680Z,79.8
2023-03-12T14:26:16.491Z,79.7
2023-03-12T14:27:44.944Z,79.7
2023-03-12T14:29:14.576Z,79.7
2023-03-12T14:30:43.285Z,79.7
2023-03-12T14:32:12.135Z,79.7
2023-03-12T14:33:40.510Z,79.7
2023-03-12T14:35:09.545Z,79.7
2023-03-12T14:36:37.730Z,79.7
2023-03-12T14:38:06.230Z,79.7
2023-03-12T14:39:34.812Z,79.7
2023-03-12T14:41:03.419Z,79.7
2023-03-12T14:42:32.318Z,79.7
2023-03-12T14:44:00.582Z,79.8
2023-03-12T14:45:29.252Z,79.8
2023-03-12T14:46:58.247Z,79.8
2023-03-12T14:48:27.021Z,79.8
2023-03-12T14:49:55.325Z,79.8
2023-03-12T14:51:25.122Z,79.8
2023-03-12T14:52:52.452Z,79.8
2023-03-12T14:54:21.830Z,79.8
2023-03-12T14:55:50.005Z,79.8
2023-03-12T14:57:18.266Z,79.7
2023-03-12T14:58:46.593Z,79.8
2023-03-12T15:00:15.317Z,79.8
2023-03-12T15:01:44.320Z,79.8
2023-03-12T15:03:12.736Z,79.9
2023-03-12T15:04:41.522Z,79.8
2023-03-12T15:06:09.732Z,79.8
2023-03-12T15:07:38.998Z,79.8
2023-03-12T15:09:07.529Z,79.8
2023-03-12T15:10:35.740Z,79.8
2023-03-12T15:12:04.065Z,79.8
2023-03-12T15:13:32.324Z,79.8
2023-03-12T15:15:01.080Z,79.9
2023-03-12T15:16:29.327Z,79.8
2023-03-12T15:17:57.644Z,79.9
2023-03-12T15:19:26.155Z,79.9
2023-03-12T15:20:54.931Z,79.9
2023-03-12T15:22:23.878Z,79.9
2023-03-12T15:23:52.396Z,79.8
2023-03-12T15:25:20.975Z,79.8
2023-03-12T15:26:49.806Z,79.8
2023-03-12T15:28:09.111Z,79.8
2023-03-12T15:29:35.454Z,79.8
2023-03-12T15:32:45.859Z,79.9
2023-03-12T15:34:28.664Z,80
2023-03-12T15:36:45.914Z,79.9
2023-03-12T15:38:01.942Z,79.9
2023-03-12T15:39:47.004Z,79.9
2023-03-12T15:41:19.234Z,79.9
2023-03-12T15:43:20.262Z,79.9
2023-03-12T15:45:24.463Z,79.9
2023-03-12T15:46:52.460Z,79.8
2023-03-12T15:48:20.617Z,79.9
2023-03-12T15:49:49.596Z,79.9
2023-03-12T15:51:17.963Z,79.9
2023-03-12T15:52:46.406Z,79.9
2023-03-12T15:54:15.104Z,79.9
2023-03-12T15:55:44.024Z,80
2023-03-12T15:57:13.665Z,80
2023-03-12T15:58:42.078Z,80
2023-03-12T16:00:10.767Z,80
2023-03-12T16:01:40.024Z,80.1
2023-03-12T16:03:09.557Z,80.1
2023-03-12T16:04:37.949Z,80.2
2023-03-12T16:06:06.826Z,80.2
2023-03-12T16:07:35.260Z,80.2
2023-03-12T16:09:04.664Z,80.2
2023-03-12T16:10:32.751Z,80.2
2023-03-12T16:12:01.300Z,80.2
2023-03-12T16:13:29.845Z,80.3
2023-03-12T16:14:58.373Z,80.2
2023-03-12T16:16:27.895Z,80.2
2023-03-12T16:17:56.003Z,80.3
2023-03-12T16:19:25.289Z,80.3
2023-03-12T16:20:53.671Z,80.3
2023-03-12T16:22:22.534Z,80.3
2023-03-12T16:23:50.367Z,80.3
2023-03-12T16:24:59.519Z,80.3
2023-03-12T16:26:27.946Z,80.4
2023-03-12T16:27:57.288Z,80.4
2023-03-12T16:29:24.812Z,80.4
2023-03-12T16:30:53.937Z,80.4
2023-03-12T16:32:22.314Z,80.5
2023-03-12T16:33:51.694Z,80.5
2023-03-12T16:35:19.799Z,80.6
2023-03-12T16:36:48.577Z,80.7
2023-03-12T16:38:17.015Z,80.8
2023-03-12T16:39:46.308Z,80.9
2023-03-12T16:41:15.753Z,80.9
2023-03-12T16:42:44.223Z,81
2023-03-12T16:44:13.225Z,81
2023-03-12T16:45:42.912Z,81.2
2023-03-12T16:47:11.268Z,81.2
2023-03-12T16:48:39.638Z,81.2
2023-03-12T16:50:08.648Z,81.2
2023-03-12T16:51:38.251Z,81.1
2023-03-12T16:53:06.470Z,81.1
2023-03-12T16:54:34.884Z,81.2
2023-03-12T16:56:03.355Z,81.2
2023-03-12T16:57:31.764Z,81.3
2023-03-12T16:59:01.048Z,81.3
2023-03-12T17:00:28.296Z,81.3
2023-03-12T17:01:57.837Z,81.3
2023-03-12T17:03:25.877Z,81.4
2023-03-12T17:04:55.723Z,81.4
2023-03-12T17:06:23.425Z,81.4
2023-03-12T17:07:51.950Z,81.5
2023-03-12T17:09:21.544Z,81.5
2023-03-12T17:10:50.260Z,81.6
2023-03-12T17:12:18.635Z,81.6
2023-03-12T17:13:47.854Z,81.5
2023-03-12T17:15:16.242Z,81.6
2023-03-12T17:16:45.710Z,81.6
2023-03-12T17:18:14.308Z,81.7
2023-03-12T17:19:42.932Z,81.7
2023-03-12T17:21:12.202Z,81.8
2023-03-12T17:22:41.659Z,81.8
2023-03-12T17:24:09.985Z,81.8
2023-03-12T17:25:38.804Z,81.8
2023-03-12T17:27:07.276Z,81.8
2023-03-12T17:28:35.615Z,81.8
2023-03-12T17:30:04.456Z,81.8
2023-03-12T17:31:32.345Z,81.8
2023-03-12T17:33:01.126Z,81.8
2023-03-12T17:34:30.166Z,81.9
2023-03-12T17:35:59.600Z,81.9
2023-03-12T17:37:27.712Z,81.9
2023-03-12T17:38:56.177Z,82
2023-03-12T17:40:24.808Z,82
2023-03-12T17:41:53.999Z,82
2023-03-12T17:43:22.946Z,82
2023-03-12T17:44:50.877Z,82
2023-03-12T17:46:19.784Z,81.9
2023-03-12T17:47:48.702Z,81.9
2023-03-12T17:49:18.173Z,81.9
2023-03-12T17:50:45.907Z,81.9
2023-03-12T17:52:14.641Z,81.9
2023-03-12T17:53:43.344Z,81.9
2023-03-12T17:55:12.572Z,81.8
2023-03-12T17:56:40.992Z,81.9
2023-03-12T17:58:10.359Z,81.8
2023-03-12T17:59:38.766Z,81.8
2023-03-12T18:01:08.296Z,81.8
2023-03-12T18:02:37.567Z,81.8
2023-03-12T18:04:16.163Z,81.8
2023-03-12T18:05:44.610Z,81.8
2023-03-12T18:07:14.114Z,81.8
2023-03-12T18:08:42.611Z,81.7
2023-03-12T18:10:11.511Z,81.7
2023-03-12T18:11:40.555Z,81.7
2023-03-12T18:13:09.929Z,81.7
2023-03-12T18:14:38.184Z,81.7
2023-03-12T18:16:06.812Z,81.7
2023-03-12T18:17:34.923Z,81.7
2023-03-12T18:19:03.366Z,81.7
2023-03-12T18:20:12.299Z,81.7
2023-03-12T18:21:40.892Z,81.7
2023-03-12T18:23:09.622Z,81.7
2023-03-12T18:24:38.272Z,81.7
2023-03-12T18:26:07.111Z,81.7
2023-03-12T18:27:35.627Z,81.6
2023-03-12T18:29:04.013Z,81.7
2023-03-12T18:30:32.802Z,81.7
2023-03-12T18:32:01.481Z,81.7
2023-03-12T18:33:30.315Z,81.7
2023-03-12T18:34:58.615Z,81.7
2023-03-12T18:36:27.521Z,81.6
2023-03-12T18:37:56.369Z,81.6
2023-03-12T18:39:24.692Z,81.6
2023-03-12T18:40:52.777Z,81.6
2023-03-12T18:42:21.134Z,81.6
2023-03-12T18:43:50.144Z,81.6
2023-03-12T18:45:19.432Z,81.6
2023-03-12T18:46:48.157Z,81.7
2023-03-12T18:48:16.453Z,81.7
2023-03-12T18:49:45.273Z,81.7
2023-03-12T18:51:14.738Z,81.7
2023-03-12T18:52:43.721Z,81.6
2023-03-12T18:54:11.662Z,81.7
2023-03-12T18:55:40.441Z,81.7
2023-03-12T18:57:09.403Z,81.7
2023-03-12T18:58:38.312Z,81.7
2023-03-12T19:00:07.465Z,81.7
2023-03-12T19:01:36.206Z,81.7
2023-03-12T19:03:05.740Z,81.7
2023-03-12T19:04:34.019Z,81.7
2023-03-12T19:06:02.230Z,81.7
2023-03-12T19:07:30.722Z,81.7
2023-03-12T19:08:59.505Z,81.7
2023-03-12T19:10:28.662Z,81.6
2023-03-12T19:11:56.995Z,81.6
2023-03-12T19:13:25.751Z,81.7
2023-03-12T19:14:54.616Z,81.7
2023-03-12T19:16:24.057Z,81.7
2023-03-12T19:17:51.679Z,81.8
2023-03-12T19:19:20.939Z,81.8
2023-03-12T19:20:49.794Z,81.8
2023-03-12T19:22:19.053Z,81.9
2023-03-12T19:23:47.183Z,81.8
2023-03-12T19:25:15.859Z,81.8
2023-03-12T19:26:44.320Z,81.8
2023-03-12T19:28:13.719Z,81.8
2023-03-12T19:29:42.338Z,81.8
2023-03-12T19:31:10.932Z,81.8
2023-03-12T19:32:45.134Z,81.8
2023-03-12T19:34:08.980Z,81.8
2023-03-12T19:35:37.617Z,81.8
2023-03-12T19:37:05.352Z,81.8
2023-03-12T19:38:33.652Z,81.9
2023-03-12T19:40:02.135Z,81.9
2023-03-12T19:41:30.880Z,81.9
2023-03-12T19:42:59.346Z,81.9
2023-03-12T19:44:27.705Z,81.9
2023-03-12T19:45:56.601Z,81.8
2023-03-12T19:47:24.825Z,81.9
2023-03-12T19:48:53.856Z,81.9
2023-03-12T19:50:22.016Z,81.9
2023-03-12T19:51:50.915Z,81.9